createdAt,value
2022-09-18T00:01:57.509Z,9.07
2022-09-18T00:04:27.382Z,9.08
2022-09-18T00:06:59.513Z,9.05
2022-09-18T00:09:28.938Z,9.04
2022-09-18T00:12:00.124Z,8.97
2022-09-18T00:14:29.897Z,8.98
2022-09-18T00:16:59.374Z,8.95
2022-09-18T00:19:29.566Z,8.93
2022-09-18T00:22:01.602Z,8.92
2022-09-18T00:24:31.206Z,9.01
2022-09-18T00:27:00.617Z,8.96
2022-09-18T00:29:30.285Z,9.00
2022-09-18T00:31:59.951Z,8.96
2022-09-18T00:34:29.394Z,9.07
2022-09-18T00:37:01.385Z,9.05
2022-09-18T00:39:30.729Z,9.07
2022-09-18T00:42:00.126Z,9.03
2022-09-18T00:44:41.221Z,9.04
2022-09-18T00:47:20.779Z,9.13
2022-09-18T00:49:53.321Z,9.18
2022-09-18T00:52:29.385Z,9.14
2022-09-18T00:55:02.289Z,9.19
2022-09-18T00:57:34.029Z,9.18
2022-09-18T01:00:04.898Z,9.21
2022-09-18T01:02:34.354Z,9.20
2022-09-18T01:05:03.824Z,9.21
2022-09-18T01:07:47.284Z,9.16
2022-09-18T01:10:26.598Z,9.19
2022-09-18T01:12:57.928Z,9.18
2022-09-18T01:15:34.840Z,9.22
2022-09-18T01:18:10.612Z,9.31
2022-09-18T01:20:57.309Z,9.22
2022-09-18T01:23:50.637Z,9.26
2022-09-18T01:26:53.237Z,9.31
2022-09-18T01:29:38.629Z,9.25
2022-09-18T01:32:11.917Z,9.86
2022-09-18T01:34:46.794Z,9.80
2022-09-18T01:37:21.031Z,9.48
2022-09-18T01:39:54.759Z,9.61
2022-09-18T01:42:26.337Z,9.44
2022-09-18T01:45:02.102Z,9.21
2022-09-18T01:47:35.537Z,9.14
2022-09-18T01:50:05.913Z,9.06
2022-09-18T01:52:38.124Z,8.90
2022-09-18T01:55:12.726Z,8.90
2022-09-18T01:57:47.362Z,8.89
2022-09-18T02:00:20.044Z,8.81
2022-09-18T02:02:54.164Z,8.80
2022-09-18T02:05:27.925Z,8.80
2022-09-18T02:08:02.786Z,8.81
2022-09-18T02:10:34.281Z,8.72
2022-09-18T02:13:05.462Z,8.69
2022-09-18T02:15:39.499Z,8.69
2022-09-18T02:18:12.482Z,8.64
2022-09-18T02:20:44.299Z,8.65
2022-09-18T02:23:14.119Z,8.58
2022-09-18T02:25:50.751Z,8.55
2022-09-18T02:28:22.306Z,8.57
2022-09-18T02:30:54.460Z,8.48
2022-09-18T02:33:28.670Z,8.47
2022-09-18T02:36:12.265Z,8.45
2022-09-18T02:38:47.929Z,8.41
2022-09-18T02:41:23.062Z,8.44
2022-09-18T02:43:57.442Z,8.45
2022-09-18T02:46:34.206Z,8.40
2022-09-18T02:49:10.206Z,8.31
2022-09-18T02:51:45.905Z,8.27
2022-09-18T02:54:16.982Z,8.21
2022-09-18T02:56:50.117Z,8.16
2022-09-18T02:59:22.718Z,8.07
2022-09-18T03:01:55.582Z,8.04
2022-09-18T03:04:26.495Z,8.00
2022-09-18T03:06:56.344Z,7.94
2022-09-18T03:09:26.392Z,7.91
2022-09-18T03:11:56.598Z,7.86
2022-09-18T03:14:25.983Z,7.86
2022-09-18T03:16:57.957Z,7.87
2022-09-18T03:19:27.348Z,7.92
2022-09-18T03:21:56.769Z,7.99
2022-09-18T03:24:27.676Z,8.06
2022-09-18T03:26:57.544Z,8.07
2022-09-18T03:29:26.926Z,8.11
2022-09-18T03:31:58.914Z,8.23
2022-09-18T03:34:28.493Z,8.27
2022-09-18T03:36:57.889Z,8.30
2022-09-18T03:39:27.325Z,8.22
2022-09-18T03:41:56.720Z,8.24
2022-09-18T03:44:26.715Z,8.20
2022-09-18T03:46:58.951Z,8.19
2022-09-18T03:49:28.356Z,8.16
2022-09-18T03:51:57.790Z,8.03
2022-09-18T03:54:27.161Z,8.04
2022-09-18T03:56:56.681Z,8.06
2022-09-18T03:59:26.187Z,8.03
2022-09-18T04:01:55.606Z,7.97
2022-09-18T04:04:27.617Z,8.00
2022-09-18T04:06:57.038Z,7.97
2022-09-18T04:09:26.418Z,8.00
2022-09-18T04:11:55.843Z,7.96
2022-09-18T04:14:29.845Z,8.02
2022-09-18T04:17:00.391Z,8.06
2022-09-18T04:19:32.366Z,8.07
2022-09-18T04:22:01.746Z,8.12
2022-09-18T04:24:31.112Z,8.03
2022-09-18T04:27:00.511Z,8.06
2022-09-18T04:29:30.017Z,8.03
2022-09-18T04:31:59.405Z,8.06
2022-09-18T04:34:28.813Z,8.05
2022-09-18T04:37:00.766Z,8.13
2022-09-18T04:39:32.446Z,8.10
2022-09-18T04:42:02.066Z,8.08
2022-09-18T04:44:31.456Z,8.09
2022-09-18T04:47:00.943Z,8.08
2022-09-18T04:49:30.346Z,8.14
2022-09-18T04:52:02.302Z,8.08
2022-09-18T04:54:31.700Z,8.00
2022-09-18T04:57:01.081Z,7.94
2022-09-18T04:59:30.458Z,7.94
2022-09-18T05:01:59.928Z,7.89
2022-09-18T05:04:29.381Z,7.89
2022-09-18T05:06:58.753Z,7.86
2022-09-18T05:09:30.709Z,7.88
2022-09-18T05:12:00.120Z,7.91
2022-09-18T05:14:29.501Z,7.90
2022-09-18T05:16:59.189Z,7.92
2022-09-18T05:19:28.546Z,7.89
2022-09-18T05:21:57.945Z,7.89
2022-09-18T05:24:29.903Z,7.78
2022-09-18T05:26:59.318Z,7.67
2022-09-18T05:29:28.680Z,7.73
2022-09-18T05:31:58.084Z,7.70
2022-09-18T05:34:27.461Z,7.73
2022-09-18T05:36:57.053Z,7.62
2022-09-18T05:39:26.777Z,7.62
2022-09-18T05:41:58.753Z,7.65
2022-09-18T05:44:28.133Z,7.72
2022-09-18T05:46:57.540Z,7.69
2022-09-18T05:49:30.013Z,7.64
2022-09-18T05:51:59.409Z,7.67
2022-09-18T05:54:28.796Z,7.64
2022-09-18T05:57:02.767Z,7.54
2022-09-18T05:59:32.209Z,7.66
2022-09-18T06:02:01.727Z,7.66
2022-09-18T06:04:31.174Z,7.55
2022-09-18T06:07:01.553Z,7.59
2022-09-18T06:09:30.934Z,7.60
2022-09-18T06:12:02.945Z,7.68
2022-09-18T06:14:32.326Z,7.62
2022-09-18T06:17:01.713Z,7.60
2022-09-18T06:19:31.772Z,7.54
2022-09-18T06:22:01.125Z,7.51
2022-09-18T06:24:30.493Z,7.40
2022-09-18T06:26:59.876Z,7.40
2022-09-18T06:29:31.861Z,7.34
2022-09-18T06:32:01.262Z,7.36
2022-09-18T06:34:30.694Z,7.41
2022-09-18T06:37:00.135Z,7.50
2022-09-18T06:39:29.581Z,7.52
2022-09-18T06:42:01.121Z,7.56
2022-09-18T06:44:33.207Z,7.62
2022-09-18T06:47:02.807Z,7.60
2022-09-18T06:49:32.254Z,7.57
2022-09-18T06:52:01.629Z,7.63
2022-09-18T06:54:31.022Z,7.64
2022-09-18T06:57:00.385Z,7.65
2022-09-18T06:59:29.772Z,7.54
2022-09-18T07:02:01.817Z,7.64
2022-09-18T07:04:31.205Z,7.64
2022-09-18T07:07:00.566Z,7.64
2022-09-18T07:09:29.961Z,7.69
2022-09-18T07:11:59.974Z,7.73
2022-09-18T07:14:29.355Z,7.78
2022-09-18T07:17:01.330Z,7.77
2022-09-18T07:19:30.942Z,7.85
2022-09-18T07:22:00.330Z,7.88
2022-09-18T07:24:29.915Z,8.09
2022-09-18T07:27:00.522Z,8.40
2022-09-18T07:29:29.875Z,8.70
2022-09-18T07:32:02.034Z,8.82
2022-09-18T07:34:31.473Z,8.50
2022-09-18T07:37:00.837Z,8.36
2022-09-18T07:39:30.212Z,8.34
2022-09-18T07:41:59.570Z,8.46
2022-09-18T07:44:30.712Z,8.53
2022-09-18T07:47:02.696Z,8.55
2022-09-18T07:49:32.901Z,8.59
2022-09-18T07:52:02.397Z,8.57
2022-09-18T07:54:31.831Z,8.64
2022-09-18T07:57:01.262Z,8.71
2022-09-18T07:59:30.634Z,8.80
2022-09-18T08:02:02.753Z,8.90
2022-09-18T08:04:32.208Z,8.94
2022-09-18T08:07:04.152Z,8.91
2022-09-18T08:09:33.648Z,8.99
2022-09-18T08:12:03.568Z,9.22
2022-09-18T08:14:32.991Z,9.23
2022-09-18T08:17:06.049Z,9.16
2022-09-18T08:19:35.417Z,9.13
2022-09-18T08:22:04.790Z,9.46
2022-09-18T08:24:34.218Z,9.67
2022-09-18T08:27:03.704Z,9.89
2022-09-18T08:29:33.143Z,9.99
2022-09-18T08:32:09.538Z,9.89
2022-09-18T08:34:39.281Z,9.77
2022-09-18T08:37:08.778Z,9.39
2022-09-18T08:39:38.152Z,8.94
2022-09-18T08:42:21.634Z,8.66
2022-09-18T08:44:56.267Z,8.54
2022-09-18T08:47:32.147Z,8.37
2022-09-18T08:50:06.528Z,8.43
2022-09-18T08:52:39.321Z,8.72
2022-09-18T08:55:12.898Z,8.87
2022-09-18T08:57:44.353Z,9.18
2022-09-18T09:00:19.942Z,9.21
2022-09-18T09:02:54.149Z,9.51
2022-09-18T09:05:25.110Z,9.52
2022-09-18T09:08:14.460Z,9.82
2022-09-18T09:10:47.839Z,9.86
2022-09-18T09:13:39.326Z,9.91
2022-09-18T09:16:17.581Z,10.23
2022-09-18T09:19:00.106Z,10.21
2022-09-18T09:21:44.853Z,10.20
2022-09-18T09:24:23.866Z,10.12
2022-09-18T09:26:55.028Z,10.09
2022-09-18T09:29:28.793Z,10.21
2022-09-18T09:32:00.842Z,10.21
2022-09-18T09:34:34.678Z,10.40
2022-09-18T09:37:07.485Z,10.54
2022-09-18T09:39:42.002Z,10.74
2022-09-18T09:42:15.654Z,10.86
2022-09-18T09:44:49.783Z,10.83
2022-09-18T09:47:26.563Z,10.80
2022-09-18T09:50:08.092Z,10.93
2022-09-18T09:52:39.058Z,11.00
2022-09-18T09:55:24.825Z,11.13
2022-09-18T09:58:03.021Z,11.29
2022-09-18T10:00:36.673Z,11.15
2022-09-18T10:03:20.187Z,11.31
2022-09-18T10:05:55.855Z,11.45
2022-09-18T10:08:30.372Z,11.19
2022-09-18T10:11:01.143Z,11.39
2022-09-18T10:13:33.468Z,11.41
2022-09-18T10:16:05.749Z,11.33
2022-09-18T10:18:39.393Z,11.40
2022-09-18T10:21:13.998Z,11.55
2022-09-18T10:23:44.552Z,11.71
2022-09-18T10:26:17.886Z,11.74
2022-09-18T10:28:47.269Z,11.74
2022-09-18T10:31:17.529Z,11.91
2022-09-18T10:33:48.606Z,11.96
2022-09-18T10:36:31.583Z,12.17
2022-09-18T10:39:01.791Z,12.36
2022-09-18T10:41:33.648Z,12.16
2022-09-18T10:44:22.726Z,11.92
2022-09-18T10:46:58.146Z,11.46
2022-09-18T10:49:30.726Z,10.45
2022-09-18T10:52:22.794Z,9.39
2022-09-18T10:55:03.777Z,9.08
2022-09-18T10:57:35.363Z,8.97
2022-09-18T11:00:08.845Z,8.94
2022-09-18T11:02:42.813Z,8.86
2022-09-18T11:05:18.890Z,8.91
2022-09-18T11:07:53.546Z,9.16
2022-09-18T11:10:24.741Z,9.28
2022-09-18T11:12:56.060Z,9.25
2022-09-18T11:15:28.663Z,9.33
2022-09-18T11:17:59.484Z,9.33
2022-09-18T11:20:30.653Z,9.54
2022-09-18T11:23:17.966Z,9.74
2022-09-18T11:25:48.407Z,9.88
2022-09-18T11:28:25.458Z,10.18
2022-09-18T11:30:59.940Z,10.18
2022-09-18T11:33:31.830Z,10.43
2022-09-18T11:36:04.999Z,10.57
2022-09-18T11:38:41.991Z,10.72
2022-09-18T11:41:11.793Z,10.54
2022-09-18T11:43:43.207Z,10.30
2022-09-18T11:46:26.993Z,9.35
2022-09-18T11:49:04.508Z,8.78
2022-09-18T11:51:38.702Z,8.37
2022-09-18T11:54:14.742Z,8.13
2022-09-18T11:56:47.714Z,8.13
2022-09-18T11:59:24.410Z,7.97
2022-09-18T12:01:56.975Z,7.96
2022-09-18T12:04:35.342Z,7.90
2022-09-18T12:07:11.475Z,7.92
2022-09-18T12:09:47.868Z,7.87
2022-09-18T12:12:22.964Z,8.17
2022-09-18T12:14:57.312Z,8.43
2022-09-18T12:17:33.354Z,8.67
2022-09-18T12:20:06.420Z,9.03
2022-09-18T12:22:42.733Z,9.32
2022-09-18T12:25:19.461Z,9.86
2022-09-18T12:27:54.097Z,10.05
2022-09-18T12:30:29.118Z,10.11
2022-09-18T12:33:14.095Z,10.20
2022-09-18T12:36:07.520Z,9.92
2022-09-18T12:38:48.047Z,9.68
2022-09-18T12:41:29.944Z,9.48
2022-09-18T12:44:12.922Z,9.47
2022-09-18T12:46:53.375Z,9.23
2022-09-18T12:49:43.435Z,9.13
2022-09-18T12:52:27.545Z,9.04
2022-09-18T12:55:08.764Z,8.90
2022-09-18T12:57:49.877Z,8.92
2022-09-18T13:00:22.176Z,8.88
2022-09-18T13:02:56.055Z,8.95
2022-09-18T13:05:30.178Z,8.97
2022-09-18T13:08:04.218Z,9.03
2022-09-18T13:10:37.437Z,9.09
2022-09-18T13:13:15.029Z,9.21
2022-09-18T13:15:47.162Z,9.19
2022-09-18T13:18:23.868Z,9.12
2022-09-18T13:20:53.718Z,9.23
2022-09-18T13:23:25.890Z,9.30
2022-09-18T13:25:55.625Z,9.15
2022-09-18T13:28:28.399Z,8.92
2022-09-18T13:31:16.757Z,9.04
2022-09-18T13:33:51.993Z,8.99
2022-09-18T13:36:26.000Z,8.81
2022-09-18T13:38:55.913Z,8.78
2022-09-18T13:41:25.367Z,8.85
2022-09-18T13:43:58.533Z,8.75
2022-09-18T13:46:39.830Z,8.74
2022-09-18T13:49:25.286Z,8.60
2022-09-18T13:51:54.652Z,8.58
2022-09-18T13:54:28.041Z,8.59
2022-09-18T13:57:18.400Z,8.51
2022-09-18T13:59:55.841Z,8.38
2022-09-18T14:02:30.965Z,8.36
2022-09-18T14:05:03.616Z,8.24
2022-09-18T14:07:56.158Z,7.90
2022-09-18T14:10:31.509Z,7.70
2022-09-18T14:13:31.753Z,7.58
2022-09-18T14:16:06.941Z,7.63
2022-09-18T14:18:41.424Z,7.68
2022-09-18T14:21:24.081Z,7.63
2022-09-18T14:24:05.440Z,7.65
2022-09-18T14:26:59.848Z,7.67
2022-09-18T14:29:31.716Z,7.63
2022-09-18T14:32:05.505Z,7.76
2022-09-18T14:34:41.092Z,7.75
2022-09-18T14:37:26.433Z,8.14
2022-09-18T14:39:56.714Z,8.22
2022-09-18T14:42:33.253Z,8.51
2022-09-18T14:45:24.282Z,8.38
2022-09-18T14:47:56.640Z,8.44
2022-09-18T14:50:35.134Z,8.80
2022-09-18T14:53:06.165Z,8.79
2022-09-18T14:55:38.606Z,8.75
2022-09-18T14:58:10.000Z,8.82
2022-09-18T15:00:40.274Z,8.83
2022-09-18T15:03:19.216Z,9.05
2022-09-18T15:05:49.085Z,9.08
2022-09-18T15:08:22.529Z,8.92
2022-09-18T15:10:55.939Z,8.92
2022-09-18T15:13:25.597Z,9.20
2022-09-18T15:16:01.488Z,9.05
2022-09-18T15:18:40.338Z,9.09
2022-09-18T15:21:23.126Z,9.03
2022-09-18T15:23:53.127Z,9.12
2022-09-18T15:26:23.427Z,9.18
2022-09-18T15:28:55.245Z,9.16
2022-09-18T15:31:26.220Z,9.08
2022-09-18T15:34:02.911Z,9.29
2022-09-18T15:36:34.541Z,9.14
2022-09-18T15:39:04.405Z,9.23
2022-09-18T15:41:41.806Z,9.22
2022-09-18T15:44:53.482Z,9.32
2022-09-18T15:47:32.785Z,9.23
2022-09-18T15:50:23.853Z,9.35
2022-09-18T15:53:05.952Z,9.32
2022-09-18T15:55:36.900Z,9.40
2022-09-18T15:58:08.013Z,9.45
2022-09-18T16:00:39.513Z,9.47
2022-09-18T16:03:10.712Z,9.52
2022-09-18T16:05:43.478Z,9.48
2022-09-18T16:08:21.282Z,9.57
2022-09-18T16:10:52.317Z,9.55
2022-09-18T16:13:37.942Z,9.45
2022-09-18T16:16:23.957Z,9.37
2022-09-18T16:18:58.704Z,9.29
2022-09-18T16:21:31.837Z,9.25
2022-09-18T16:24:03.535Z,9.22
2022-09-18T16:26:35.928Z,9.11
2022-09-18T16:29:07.092Z,9.03
2022-09-18T16:31:38.156Z,9.03
2022-09-18T16:34:08.821Z,8.93
2022-09-18T16:36:42.258Z,8.92
2022-09-18T16:39:14.471Z,8.98
2022-09-18T16:41:44.388Z,8.89
2022-09-18T16:44:15.278Z,8.78
2022-09-18T16:46:49.271Z,8.78
2022-09-18T16:49:21.128Z,8.78
2022-09-18T16:51:55.122Z,8.76
2022-09-18T16:54:24.510Z,8.67
2022-09-18T16:56:56.440Z,8.63
2022-09-18T16:59:28.997Z,8.72
2022-09-18T17:02:04.279Z,8.76
2022-09-18T17:04:34.876Z,8.74
2022-09-18T17:07:07.026Z,8.63
2022-09-18T17:09:36.576Z,8.49
2022-09-18T17:12:06.658Z,8.47
2022-09-18T17:14:36.392Z,8.46
2022-09-18T17:17:06.271Z,8.44
2022-09-18T17:19:35.939Z,8.36
2022-09-18T17:22:08.029Z,8.35
2022-09-18T17:24:37.760Z,8.36
2022-09-18T17:27:07.409Z,8.36
2022-09-18T17:29:37.208Z,8.32
2022-09-18T17:32:07.641Z,8.37
2022-09-18T17:34:37.050Z,8.41
2022-09-18T17:37:09.014Z,8.36
2022-09-18T17:39:38.428Z,8.35
2022-09-18T17:42:08.417Z,8.37
2022-09-18T17:44:37.812Z,8.34
2022-09-18T17:47:07.464Z,8.29
2022-09-18T17:49:37.073Z,8.31
2022-09-18T17:52:09.063Z,8.27
2022-09-18T17:54:38.870Z,8.23
2022-09-18T17:57:11.645Z,8.20
2022-09-18T17:59:41.689Z,8.14
2022-09-18T18:02:13.168Z,8.07
2022-09-18T18:04:42.849Z,8.06
2022-09-18T18:07:14.850Z,8.04
2022-09-18T18:09:44.301Z,8.03
2022-09-18T18:12:14.350Z,8.02
2022-09-18T18:14:44.327Z,7.96
2022-09-18T18:17:14.574Z,7.92
2022-09-18T18:19:44.017Z,7.82
2022-09-18T18:22:15.986Z,7.82
2022-09-18T18:24:45.348Z,7.80
2022-09-18T18:27:14.724Z,7.72
2022-09-18T18:29:45.545Z,7.69
2022-09-18T18:32:14.985Z,7.72
2022-09-18T18:34:44.393Z,7.63
2022-09-18T18:37:17.060Z,7.59
2022-09-18T18:39:47.989Z,7.59
2022-09-18T18:42:17.602Z,7.55
2022-09-18T18:44:47.094Z,7.52
2022-09-18T18:47:17.590Z,7.49
2022-09-18T18:49:46.960Z,7.47
2022-09-18T18:52:18.937Z,7.43
2022-09-18T18:54:48.605Z,7.37
2022-09-18T18:57:17.991Z,7.36
2022-09-18T18:59:47.367Z,7.36
2022-09-18T19:02:17.343Z,7.34
2022-09-18T19:04:46.756Z,7.33
2022-09-18T19:07:18.746Z,7.36
2022-09-18T19:09:48.209Z,7.27
2022-09-18T19:12:17.615Z,7.32
2022-09-18T19:14:46.968Z,7.36
2022-09-18T19:17:17.236Z,7.36
2022-09-18T19:19:46.645Z,7.38
2022-09-18T19:22:19.160Z,7.44
2022-09-18T19:24:48.545Z,7.39
2022-09-18T19:27:18.974Z,7.41
2022-09-18T19:29:48.346Z,7.38
2022-09-18T19:32:18.932Z,7.40
2022-09-18T19:34:48.335Z,7.46
2022-09-18T19:37:20.298Z,7.47
2022-09-18T19:39:50.384Z,7.62
2022-09-18T19:42:20.318Z,7.54
2022-09-18T19:44:51.089Z,7.60
2022-09-18T19:47:23.365Z,7.62
2022-09-18T19:49:55.205Z,7.72
2022-09-18T19:52:28.617Z,7.91
2022-09-18T19:54:59.386Z,7.80
2022-09-18T19:57:30.554Z,7.79
2022-09-18T20:00:01.145Z,7.79
2022-09-18T20:02:30.603Z,7.91
2022-09-18T20:05:00.002Z,7.87
2022-09-18T20:07:31.979Z,7.74
2022-09-18T20:10:01.346Z,7.76
2022-09-18T20:12:35.289Z,7.74
2022-09-18T20:15:05.189Z,7.88
2022-09-18T20:17:34.614Z,7.97
2022-09-18T20:20:07.690Z,7.96
2022-09-18T20:22:40.672Z,8.03
2022-09-18T20:25:10.890Z,8.08
2022-09-18T20:27:41.540Z,8.07
2022-09-18T20:30:13.463Z,8.21
2022-09-18T20:32:43.445Z,8.17
2022-09-18T20:35:12.850Z,8.31
2022-09-18T20:37:44.806Z,8.15
2022-09-18T20:40:14.332Z,8.04
2022-09-18T20:42:43.748Z,8.06
2022-09-18T20:45:13.206Z,8.03
2022-09-18T20:47:43.569Z,8.00
2022-09-18T20:50:15.050Z,8.01
2022-09-18T20:52:47.760Z,8.02
2022-09-18T20:55:19.085Z,8.04
2022-09-18T20:57:50.008Z,8.06
2022-09-18T21:00:19.688Z,8.08
2022-09-18T21:02:53.391Z,8.10
2022-09-18T21:05:22.808Z,8.15
2022-09-18T21:07:57.342Z,8.18
2022-09-18T21:10:26.788Z,8.20
2022-09-18T21:12:56.161Z,8.23
2022-09-18T21:15:25.556Z,8.29
2022-09-18T21:17:55.036Z,8.32
2022-09-18T21:20:24.540Z,8.35
2022-09-18T21:23:08.988Z,8.37
2022-09-18T21:25:38.410Z,8.37
2022-09-18T21:28:07.798Z,8.38
2022-09-18T21:30:37.213Z,8.39
2022-09-18T21:33:11.048Z,8.41
2022-09-18T21:35:41.059Z,8.41
2022-09-18T21:38:13.820Z,8.38
2022-09-18T21:40:44.464Z,8.37
2022-09-18T21:43:15.578Z,8.29
2022-09-18T21:45:45.142Z,8.29
2022-09-18T21:48:15.548Z,8.28
2022-09-18T21:50:44.918Z,8.28
2022-09-18T21:53:16.906Z,8.21
2022-09-18T21:55:47.765Z,8.23
2022-09-18T21:58:20.878Z,8.18
2022-09-18T22:00:50.313Z,8.14
2022-09-18T22:03:20.036Z,8.08
2022-09-18T22:05:50.821Z,8.04
2022-09-18T22:08:22.797Z,7.96
2022-09-18T22:10:52.160Z,7.98
2022-09-18T22:13:22.204Z,7.92
2022-09-18T22:15:56.976Z,7.91
2022-09-18T22:18:26.609Z,7.88
2022-09-18T22:20:57.679Z,7.86
2022-09-18T22:23:29.801Z,7.83
2022-09-18T22:26:01.850Z,7.82
2022-09-18T22:28:31.443Z,7.79
2022-09-18T22:31:01.258Z,7.75
2022-09-18T22:33:31.152Z,7.73
2022-09-18T22:36:05.768Z,7.70
2022-09-18T22:38:37.976Z,7.66
2022-09-18T22:41:08.692Z,7.62
2022-09-18T22:43:38.384Z,7.55
2022-09-18T22:46:09.620Z,7.54
2022-09-18T22:48:39.853Z,7.51
2022-09-18T22:51:10.224Z,7.50
2022-09-18T22:53:45.938Z,7.51
2022-09-18T22:56:16.865Z,7.47
2022-09-18T22:58:46.400Z,7.42
2022-09-18T23:01:18.513Z,7.42
2022-09-18T23:03:49.450Z,7.39
2022-09-18T23:06:22.632Z,7.40
2022-09-18T23:09:00.048Z,7.32
2022-09-18T23:11:32.224Z,7.33
2022-09-18T23:14:03.786Z,7.30
2022-09-18T23:16:34.743Z,7.25
2022-09-18T23:19:05.954Z,7.24
2022-09-18T23:21:36.911Z,7.26
2022-09-18T23:24:10.611Z,7.27
2022-09-18T23:26:41.537Z,7.21
2022-09-18T23:29:12.763Z,7.19
2022-09-18T23:31:44.045Z,7.14
2022-09-18T23:34:15.346Z,7.16
2022-09-18T23:36:46.433Z,7.09
2022-09-18T23:39:21.445Z,7.10
2022-09-18T23:41:54.327Z,7.04
2022-09-18T23:44:25.076Z,7.07
2022-09-18T23:46:54.486Z,7.05
2022-09-18T23:49:24.246Z,6.98
2022-09-18T23:51:55.220Z,6.96
2022-09-18T23:54:28.741Z,6.96
2022-09-18T23:56:58.177Z,6.97
2022-09-18T23:59:28.578Z,6.91
